sensor_id;sensor_type;location;lat;lon;timestamp;temperature;humidity
68719;DHT22;55696;52.138;5.444;2022-09-03T00:01:22;20.80;40.00
68719;DHT22;55696;52.138;5.444;2022-09-03T00:03:56;20.80;40.10
68719;DHT22;55696;52.138;5.444;2022-09-03T00:06:29;20.80;40.30
68719;DHT22;55696;52.138;5.444;2022-09-03T00:09:20;20.80;40.30
68719;DHT22;55696;52.138;5.444;2022-09-03T00:15:16;20.70;40.20
68719;DHT22;55696;52.138;5.444;2022-09-03T00:17:48;20.70;40.50
68719;DHT22;55696;52.138;5.444;2022-09-03T00:23:02;20.60;40.60
68719;DHT22;55696;52.138;5.444;2022-09-03T00:25:53;20.60;40.60
68719;DHT22;55696;52.138;5.444;2022-09-03T00:28:45;20.80;40.90
68719;DHT22;55696;52.138;5.444;2022-09-03T00:31:30;20.60;40.60
68719;DHT22;55696;52.138;5.444;2022-09-03T00:34:09;20.60;40.50
68719;DHT22;55696;52.138;5.444;2022-09-03T00:36:41;20.60;40.80
68719;DHT22;55696;52.138;5.444;2022-09-03T00:39:10;20.60;40.80
68719;DHT22;55696;52.138;5.444;2022-09-03T00:42:16;20.50;40.80
68719;DHT22;55696;52.138;5.444;2022-09-03T00:47:11;20.40;40.80
68719;DHT22;55696;52.138;5.444;2022-09-03T00:50:03;20.40;41.10
68719;DHT22;55696;52.138;5.444;2022-09-03T01:06:59;20.30;41.40
68719;DHT22;55696;52.138;5.444;2022-09-03T01:15:47;20.20;41.80
68719;DHT22;55696;52.138;5.444;2022-09-03T01:18:41;20.10;41.90
68719;DHT22;55696;52.138;5.444;2022-09-03T01:24:29;20.10;41.90
68719;DHT22;55696;52.138;5.444;2022-09-03T01:30:07;20.10;42.10
68719;DHT22;55696;52.138;5.444;2022-09-03T01:32:58;20.20;42.00
68719;DHT22;55696;52.138;5.444;2022-09-03T01:35:43;20.10;42.00
68719;DHT22;55696;52.138;5.444;2022-09-03T01:41:18;20.10;42.10
68719;DHT22;55696;52.138;5.444;2022-09-03T01:44:13;20.10;42.20
68719;DHT22;55696;52.138;5.444;2022-09-03T01:46:45;20.10;42.10
68719;DHT22;55696;52.138;5.444;2022-09-03T01:49:24;20.00;42.00
68719;DHT22;55696;52.138;5.444;2022-09-03T01:52:01;19.90;42.40
68719;DHT22;55696;52.138;5.444;2022-09-03T02:00:11;20.00;42.20
68719;DHT22;55696;52.138;5.444;2022-09-03T02:02:41;20.00;42.40
68719;DHT22;55696;52.138;5.444;2022-09-03T02:05:12;20.10;42.20
68719;DHT22;55696;52.138;5.444;2022-09-03T02:08:04;20.10;42.20
68719;DHT22;55696;52.138;5.444;2022-09-03T02:10:52;19.40;42.20
68719;DHT22;55696;52.138;5.444;2022-09-03T02:13:23;20.10;42.60
68719;DHT22;55696;52.138;5.444;2022-09-03T02:15:52;20.00;42.30
68719;DHT22;55696;52.138;5.444;2022-09-03T02:18:32;19.70;42.40
68719;DHT22;55696;52.138;5.444;2022-09-03T02:21:02;19.90;42.30
68719;DHT22;55696;52.138;5.444;2022-09-03T02:23:28;20.00;42.30
68719;DHT22;55696;52.138;5.444;2022-09-03T02:25:58;20.00;42.50
68719;DHT22;55696;52.138;5.444;2022-09-03T02:28:27;20.00;42.60
68719;DHT22;55696;52.138;5.444;2022-09-03T02:30:54;20.00;42.60
68719;DHT22;55696;52.138;5.444;2022-09-03T02:33:22;20.10;42.40
68719;DHT22;55696;52.138;5.444;2022-09-03T02:35:50;20.00;42.30
68719;DHT22;55696;52.138;5.444;2022-09-03T02:38:23;20.00;42.30
68719;DHT22;55696;52.138;5.444;2022-09-03T02:40:51;19.90;42.50
68719;DHT22;55696;52.138;5.444;2022-09-03T02:45:54;19.80;42.80
68719;DHT22;55696;52.138;5.444;2022-09-03T02:48:23;19.60;43.70
68719;DHT22;55696;52.138;5.444;2022-09-03T02:50:50;19.60;42.70
68719;DHT22;55696;52.138;5.444;2022-09-03T02:53:17;19.60;42.80
68719;DHT22;55696;52.138;5.444;2022-09-03T02:55:44;19.60;42.90
68719;DHT22;55696;52.138;5.444;2022-09-03T02:58:11;19.60;42.90
68719;DHT22;55696;52.138;5.444;2022-09-03T03:00:38;19.60;42.90
68719;DHT22;55696;52.138;5.444;2022-09-03T03:03:05;19.60;42.90
68719;DHT22;55696;52.138;5.444;2022-09-03T03:05:45;19.60;43.00
68719;DHT22;55696;52.138;5.444;2022-09-03T03:08:14;19.50;43.30
68719;DHT22;55696;52.138;5.444;2022-09-03T03:10:42;20.20;43.60
68719;DHT22;55696;52.138;5.444;2022-09-03T03:13:12;19.60;43.20
68719;DHT22;55696;52.138;5.444;2022-09-03T03:15:40;19.50;43.30
68719;DHT22;55696;52.138;5.444;2022-09-03T03:18:07;19.40;43.40
68719;DHT22;55696;52.138;5.444;2022-09-03T03:20:38;19.50;43.40
68719;DHT22;55696;52.138;5.444;2022-09-03T03:23:05;19.40;43.60
68719;DHT22;55696;52.138;5.444;2022-09-03T03:25:34;19.40;43.60
68719;DHT22;55696;52.138;5.444;2022-09-03T03:28:01;19.50;43.70
68719;DHT22;55696;52.138;5.444;2022-09-03T03:30:30;19.40;43.70
68719;DHT22;55696;52.138;5.444;2022-09-03T03:32:57;19.40;43.70
68719;DHT22;55696;52.138;5.444;2022-09-03T03:35:24;19.50;43.70
68719;DHT22;55696;52.138;5.444;2022-09-03T03:37:50;19.50;43.60
68719;DHT22;55696;52.138;5.444;2022-09-03T03:40:17;19.50;43.60
68719;DHT22;55696;52.138;5.444;2022-09-03T03:42:45;19.30;43.40
68719;DHT22;55696;52.138;5.444;2022-09-03T03:45:12;19.40;43.60
68719;DHT22;55696;52.138;5.444;2022-09-03T03:47:39;19.40;43.70
68719;DHT22;55696;52.138;5.444;2022-09-03T03:50:06;19.40;43.60
68719;DHT22;55696;52.138;5.444;2022-09-03T03:52:33;19.40;43.60
68719;DHT22;55696;52.138;5.444;2022-09-03T03:54:59;19.40;43.60
68719;DHT22;55696;52.138;5.444;2022-09-03T03:57:29;19.40;43.70
68719;DHT22;55696;52.138;5.444;2022-09-03T03:59:56;19.40;43.80
68719;DHT22;55696;52.138;5.444;2022-09-03T04:02:23;19.50;43.60
68719;DHT22;55696;52.138;5.444;2022-09-03T04:04:50;19.40;43.60
68719;DHT22;55696;52.138;5.444;2022-09-03T04:07:16;19.50;43.60
68719;DHT22;55696;52.138;5.444;2022-09-03T04:09:43;19.40;43.50
68719;DHT22;55696;52.138;5.444;2022-09-03T04:12:10;19.50;43.50
68719;DHT22;55696;52.138;5.444;2022-09-03T04:14:36;19.50;43.50
68719;DHT22;55696;52.138;5.444;2022-09-03T04:17:03;19.50;43.40
68719;DHT22;55696;52.138;5.444;2022-09-03T04:19:30;19.40;43.70
68719;DHT22;55696;52.138;5.444;2022-09-03T04:21:57;19.40;43.90
68719;DHT22;55696;52.138;5.444;2022-09-03T04:24:24;19.40;43.90
68719;DHT22;55696;52.138;5.444;2022-09-03T04:26:50;19.50;43.80
68719;DHT22;55696;52.138;5.444;2022-09-03T04:29:17;19.50;43.70
68719;DHT22;55696;52.138;5.444;2022-09-03T04:31:44;19.50;43.50
68719;DHT22;55696;52.138;5.444;2022-09-03T04:34:30;19.40;43.70
68719;DHT22;55696;52.138;5.444;2022-09-03T04:36:57;19.40;43.70
68719;DHT22;55696;52.138;5.444;2022-09-03T04:39:24;19.50;43.60
68719;DHT22;55696;52.138;5.444;2022-09-03T04:41:51;19.40;43.50
68719;DHT22;55696;52.138;5.444;2022-09-03T04:44:18;19.40;43.70
68719;DHT22;55696;52.138;5.444;2022-09-03T04:46:45;19.50;43.80
68719;DHT22;55696;52.138;5.444;2022-09-03T04:49:13;19.40;43.60
68719;DHT22;55696;52.138;5.444;2022-09-03T04:51:40;19.50;43.60
68719;DHT22;55696;52.138;5.444;2022-09-03T04:54:07;19.30;43.40
68719;DHT22;55696;52.138;5.444;2022-09-03T04:56:37;19.40;43.50
68719;DHT22;55696;52.138;5.444;2022-09-03T04:59:07;19.30;43.70
68719;DHT22;55696;52.138;5.444;2022-09-03T05:01:36;19.80;44.10
68719;DHT22;55696;52.138;5.444;2022-09-03T05:04:04;19.30;43.70
68719;DHT22;55696;52.138;5.444;2022-09-03T05:06:31;19.30;43.80
68719;DHT22;55696;52.138;5.444;2022-09-03T05:08:59;19.30;43.80
68719;DHT22;55696;52.138;5.444;2022-09-03T05:11:27;19.30;43.90
68719;DHT22;55696;52.138;5.444;2022-09-03T05:13:56;19.40;44.20
68719;DHT22;55696;52.138;5.444;2022-09-03T05:16:25;19.40;44.00
68719;DHT22;55696;52.138;5.444;2022-09-03T05:18:53;19.40;43.80
68719;DHT22;55696;52.138;5.444;2022-09-03T05:21:21;19.40;43.80
68719;DHT22;55696;52.138;5.444;2022-09-03T05:23:49;19.40;43.80
68719;DHT22;55696;52.138;5.444;2022-09-03T05:26:18;19.40;43.80
68719;DHT22;55696;52.138;5.444;2022-09-03T05:28:45;19.40;43.90
68719;DHT22;55696;52.138;5.444;2022-09-03T05:31:14;19.40;44.00
68719;DHT22;55696;52.138;5.444;2022-09-03T05:33:44;19.30;44.20
68719;DHT22;55696;52.138;5.444;2022-09-03T05:36:13;19.40;44.50
68719;DHT22;55696;52.138;5.444;2022-09-03T05:38:41;19.50;44.50
68719;DHT22;55696;52.138;5.444;2022-09-03T05:41:10;19.50;44.30
68719;DHT22;55696;52.138;5.444;2022-09-03T05:43:38;19.50;44.10
68719;DHT22;55696;52.138;5.444;2022-09-03T05:46:08;19.60;44.20
68719;DHT22;55696;52.138;5.444;2022-09-03T05:48:36;19.50;44.20
68719;DHT22;55696;52.138;5.444;2022-09-03T05:51:05;19.50;44.20
68719;DHT22;55696;52.138;5.444;2022-09-03T05:53:35;19.50;44.30
68719;DHT22;55696;52.138;5.444;2022-09-03T05:56:04;19.70;44.40
68719;DHT22;55696;52.138;5.444;2022-09-03T05:58:36;19.50;44.30
68719;DHT22;55696;52.138;5.444;2022-09-03T06:01:26;19.50;44.70
68719;DHT22;55696;52.138;5.444;2022-09-03T06:04:00;19.70;44.50
68719;DHT22;55696;52.138;5.444;2022-09-03T06:06:28;19.70;44.20
68719;DHT22;55696;52.138;5.444;2022-09-03T06:08:59;19.80;44.00
68719;DHT22;55696;52.138;5.444;2022-09-03T06:11:29;19.80;44.00
68719;DHT22;55696;52.138;5.444;2022-09-03T06:14:00;19.80;43.80
68719;DHT22;55696;52.138;5.444;2022-09-03T06:16:28;20.00;43.60
68719;DHT22;55696;52.138;5.444;2022-09-03T06:19:01;20.00;43.80
68719;DHT22;55696;52.138;5.444;2022-09-03T06:21:28;20.00;43.70
68719;DHT22;55696;52.138;5.444;2022-09-03T06:23:56;20.00;43.50
68719;DHT22;55696;52.138;5.444;2022-09-03T06:26:26;20.10;43.70
68719;DHT22;55696;52.138;5.444;2022-09-03T06:28:56;20.20;43.60
68719;DHT22;55696;52.138;5.444;2022-09-03T06:31:24;20.30;43.40
68719;DHT22;55696;52.138;5.444;2022-09-03T06:33:51;20.10;43.40
68719;DHT22;55696;52.138;5.444;2022-09-03T06:36:20;20.30;43.40
68719;DHT22;55696;52.138;5.444;2022-09-03T06:38:49;20.30;43.50
68719;DHT22;55696;52.138;5.444;2022-09-03T06:41:19;20.40;43.30
68719;DHT22;55696;52.138;5.444;2022-09-03T06:43:47;20.50;43.20
68719;DHT22;55696;52.138;5.444;2022-09-03T06:46:16;20.50;43.10
68719;DHT22;55696;52.138;5.444;2022-09-03T06:48:43;20.90;43.20
68719;DHT22;55696;52.138;5.444;2022-09-03T06:51:16;20.70;43.00
68719;DHT22;55696;52.138;5.444;2022-09-03T06:53:47;20.70;43.20
68719;DHT22;55696;52.138;5.444;2022-09-03T06:56:17;20.80;43.00
68719;DHT22;55696;52.138;5.444;2022-09-03T06:58:47;21.00;42.70
68719;DHT22;55696;52.138;5.444;2022-09-03T07:01:17;21.00;42.60
68719;DHT22;55696;52.138;5.444;2022-09-03T07:03:46;21.00;42.50
68719;DHT22;55696;52.138;5.444;2022-09-03T07:06:18;21.10;42.40
68719;DHT22;55696;52.138;5.444;2022-09-03T07:08:45;21.10;42.30
68719;DHT22;55696;52.138;5.444;2022-09-03T07:11:14;21.30;42.00
68719;DHT22;55696;52.138;5.444;2022-09-03T07:13:46;21.40;42.40
68719;DHT22;55696;52.138;5.444;2022-09-03T07:16:22;21.40;42.30
68719;DHT22;55696;52.138;5.444;2022-09-03T07:18:50;21.60;42.00
68719;DHT22;55696;52.138;5.444;2022-09-03T07:21:20;21.70;41.70
68719;DHT22;55696;52.138;5.444;2022-09-03T07:23:49;21.80;41.50
68719;DHT22;55696;52.138;5.444;2022-09-03T07:26:20;21.90;41.30
68719;DHT22;55696;52.138;5.444;2022-09-03T07:28:48;21.90;41.30
68719;DHT22;55696;52.138;5.444;2022-09-03T07:31:18;21.90;41.10
68719;DHT22;55696;52.138;5.444;2022-09-03T07:33:46;21.90;41.10
68719;DHT22;55696;52.138;5.444;2022-09-03T07:36:15;22.10;41.10
68719;DHT22;55696;52.138;5.444;2022-09-03T07:38:43;22.20;41.00
68719;DHT22;55696;52.138;5.444;2022-09-03T07:41:11;22.60;41.20
68719;DHT22;55696;52.138;5.444;2022-09-03T07:43:49;22.30;40.70
68719;DHT22;55696;52.138;5.444;2022-09-03T07:46:19;22.30;40.50
68719;DHT22;55696;52.138;5.444;2022-09-03T07:48:50;22.40;40.50
68719;DHT22;55696;52.138;5.444;2022-09-03T07:51:19;22.50;40.60
68719;DHT22;55696;52.138;5.444;2022-09-03T07:53:47;22.60;40.30
68719;DHT22;55696;52.138;5.444;2022-09-03T07:56:14;22.70;40.20
68719;DHT22;55696;52.138;5.444;2022-09-03T07:58:41;22.80;40.20
68719;DHT22;55696;52.138;5.444;2022-09-03T08:01:21;22.80;40.00
68719;DHT22;55696;52.138;5.444;2022-09-03T08:03:50;23.00;39.60
68719;DHT22;55696;52.138;5.444;2022-09-03T08:06:21;23.00;39.50
68719;DHT22;55696;52.138;5.444;2022-09-03T08:08:53;23.10;39.40
68719;DHT22;55696;52.138;5.444;2022-09-03T08:11:29;22.90;39.00
68719;DHT22;55696;52.138;5.444;2022-09-03T08:14:01;23.10;38.70
68719;DHT22;55696;52.138;5.444;2022-09-03T08:16:29;23.20;38.80
68719;DHT22;55696;52.138;5.444;2022-09-03T08:18:57;23.20;38.60
68719;DHT22;55696;52.138;5.444;2022-09-03T08:21:25;23.20;38.30
68719;DHT22;55696;52.138;5.444;2022-09-03T08:23:53;23.10;38.30
68719;DHT22;55696;52.138;5.444;2022-09-03T08:26:21;23.30;38.40
68719;DHT22;55696;52.138;5.444;2022-09-03T08:28:51;23.40;38.20
68719;DHT22;55696;52.138;5.444;2022-09-03T08:31:20;23.50;38.10
68719;DHT22;55696;52.138;5.444;2022-09-03T08:33:51;23.50;38.00
68719;DHT22;55696;52.138;5.444;2022-09-03T08:36:29;23.60;38.00
68719;DHT22;55696;52.138;5.444;2022-09-03T08:39:01;23.70;37.70
68719;DHT22;55696;52.138;5.444;2022-09-03T08:47:13;23.90;37.10
68719;DHT22;55696;52.138;5.444;2022-09-03T08:50:09;24.00;37.00
68719;DHT22;55696;52.138;5.444;2022-09-03T08:52:59;24.10;37.10
68719;DHT22;55696;52.138;5.444;2022-09-03T08:55:36;24.10;36.70
68719;DHT22;55696;52.138;5.444;2022-09-03T08:58:15;24.20;36.70
68719;DHT22;55696;52.138;5.444;2022-09-03T09:01:05;24.10;36.50
68719;DHT22;55696;52.138;5.444;2022-09-03T09:06:38;24.40;36.20
68719;DHT22;55696;52.138;5.444;2022-09-03T09:14:44;24.60;35.50
68719;DHT22;55696;52.138;5.444;2022-09-03T09:23:23;24.80;35.40
68719;DHT22;55696;52.138;5.444;2022-09-03T09:25:53;24.80;35.30
68719;DHT22;55696;52.138;5.444;2022-09-03T09:28:23;25.00;35.10
68719;DHT22;55696;52.138;5.444;2022-09-03T09:30:54;24.90;34.80
68719;DHT22;55696;52.138;5.444;2022-09-03T09:33:22;25.00;34.70
68719;DHT22;55696;52.138;5.444;2022-09-03T09:35:50;25.30;34.70
68719;DHT22;55696;52.138;5.444;2022-09-03T09:38:28;25.30;34.80
68719;DHT22;55696;52.138;5.444;2022-09-03T09:40:55;25.50;34.70
68719;DHT22;55696;52.138;5.444;2022-09-03T09:43:25;25.60;34.30
68719;DHT22;55696;52.138;5.444;2022-09-03T09:45:52;25.50;34.10
68719;DHT22;55696;52.138;5.444;2022-09-03T09:48:25;25.50;34.10
68719;DHT22;55696;52.138;5.444;2022-09-03T09:51:10;25.80;34.30
68719;DHT22;55696;52.138;5.444;2022-09-03T09:53:37;25.80;34.30
68719;DHT22;55696;52.138;5.444;2022-09-03T09:56:05;25.80;33.70
68719;DHT22;55696;52.138;5.444;2022-09-03T09:58:33;25.90;33.80
68719;DHT22;55696;52.138;5.444;2022-09-03T10:01:10;25.90;33.80
68719;DHT22;55696;52.138;5.444;2022-09-03T10:03:52;26.00;33.50
68719;DHT22;55696;52.138;5.444;2022-09-03T10:06:27;26.20;33.60
68719;DHT22;55696;52.138;5.444;2022-09-03T10:09:18;26.80;34.10
68719;DHT22;55696;52.138;5.444;2022-09-03T10:14:37;26.30;33.60
68719;DHT22;55696;52.138;5.444;2022-09-03T10:17:13;26.30;33.30
68719;DHT22;55696;52.138;5.444;2022-09-03T10:20:03;26.30;33.20
68719;DHT22;55696;52.138;5.444;2022-09-03T10:23:05;26.50;33.30
68719;DHT22;55696;52.138;5.444;2022-09-03T10:28:36;26.60;33.00
68719;DHT22;55696;52.138;5.444;2022-09-03T10:31:16;26.80;32.90
68719;DHT22;55696;52.138;5.444;2022-09-03T10:33:55;26.80;32.80
68719;DHT22;55696;52.138;5.444;2022-09-03T10:36:30;26.80;32.70
68719;DHT22;55696;52.138;5.444;2022-09-03T10:39:13;27.30;33.00
68719;DHT22;55696;52.138;5.444;2022-09-03T10:44:58;27.10;32.50
68719;DHT22;55696;52.138;5.444;2022-09-03T10:50:33;27.30;32.00
68719;DHT22;55696;52.138;5.444;2022-09-03T10:53:30;27.40;32.30
68719;DHT22;55696;52.138;5.444;2022-09-03T10:55:58;27.20;32.00
68719;DHT22;55696;52.138;5.444;2022-09-03T11:01:05;27.40;31.70
68719;DHT22;55696;52.138;5.444;2022-09-03T11:03:47;27.70;31.50
68719;DHT22;55696;52.138;5.444;2022-09-03T11:06:25;27.70;31.50
68719;DHT22;55696;52.138;5.444;2022-09-03T11:09:07;27.80;31.30
68719;DHT22;55696;52.138;5.444;2022-09-03T11:11:41;28.00;31.20
68719;DHT22;55696;52.138;5.444;2022-09-03T11:14:13;27.90;30.90
68719;DHT22;55696;52.138;5.444;2022-09-03T11:16:45;27.80;30.60
68719;DHT22;55696;52.138;5.444;2022-09-03T11:19:17;28.20;31.90
68719;DHT22;55696;52.138;5.444;2022-09-03T11:21:45;28.30;30.80
68719;DHT22;55696;52.138;5.444;2022-09-03T11:24:20;28.40;30.50
68719;DHT22;55696;52.138;5.444;2022-09-03T11:29:54;28.60;30.40
68719;DHT22;55696;52.138;5.444;2022-09-03T11:32:31;28.60;30.40
68719;DHT22;55696;52.138;5.444;2022-09-03T11:35:00;28.60;30.30
68719;DHT22;55696;52.138;5.444;2022-09-03T11:37:28;28.80;30.00
68719;DHT22;55696;52.138;5.444;2022-09-03T11:40:13;28.90;30.00
68719;DHT22;55696;52.138;5.444;2022-09-03T11:42:44;28.90;29.90
68719;DHT22;55696;52.138;5.444;2022-09-03T11:47:55;29.70;30.10
68719;DHT22;55696;52.138;5.444;2022-09-03T11:50:28;29.20;29.70
68719;DHT22;55696;52.138;5.444;2022-09-03T11:56:00;29.60;29.50
68719;DHT22;55696;52.138;5.444;2022-09-03T11:58:30;29.60;29.30
68719;DHT22;55696;52.138;5.444;2022-09-03T12:01:07;29.70;28.80
68719;DHT22;55696;52.138;5.444;2022-09-03T12:03:51;29.80;28.50
68719;DHT22;55696;52.138;5.444;2022-09-03T12:12:29;30.20;28.50
68719;DHT22;55696;52.138;5.444;2022-09-03T12:15:03;30.40;28.40
68719;DHT22;55696;52.138;5.444;2022-09-03T12:17:47;30.50;27.80
68719;DHT22;55696;52.138;5.444;2022-09-03T12:20:35;30.70;27.60
68719;DHT22;55696;52.138;5.444;2022-09-03T12:23:02;31.10;27.60
68719;DHT22;55696;52.138;5.444;2022-09-03T12:25:29;31.00;27.40
68719;DHT22;55696;52.138;5.444;2022-09-03T12:27:59;31.70;27.60
68719;DHT22;55696;52.138;5.444;2022-09-03T12:30:29;31.30;26.90
68719;DHT22;55696;52.138;5.444;2022-09-03T12:33:06;31.40;26.90
68719;DHT22;55696;52.138;5.444;2022-09-03T12:35:33;31.60;26.80
68719;DHT22;55696;52.138;5.444;2022-09-03T12:38:25;31.80;26.60
68719;DHT22;55696;52.138;5.444;2022-09-03T12:40:52;31.70;26.30
68719;DHT22;55696;52.138;5.444;2022-09-03T12:43:40;31.90;26.20
68719;DHT22;55696;52.138;5.444;2022-09-03T12:46:13;31.90;26.00
68719;DHT22;55696;52.138;5.444;2022-09-03T12:48:58;32.00;25.80
68719;DHT22;55696;52.138;5.444;2022-09-03T12:51:49;32.00;25.90
68719;DHT22;55696;52.138;5.444;2022-09-03T12:54:23;32.20;26.00
68719;DHT22;55696;52.138;5.444;2022-09-03T12:56:57;32.30;25.80
68719;DHT22;55696;52.138;5.444;2022-09-03T12:59:26;32.40;25.90
68719;DHT22;55696;52.138;5.444;2022-09-03T13:01:57;32.50;25.60
68719;DHT22;55696;52.138;5.444;2022-09-03T13:04:30;32.60;25.60
68719;DHT22;55696;52.138;5.444;2022-09-03T13:07:33;32.60;25.70
68719;DHT22;55696;52.138;5.444;2022-09-03T13:10:05;32.20;25.20
68719;DHT22;55696;52.138;5.444;2022-09-03T13:12:45;33.10;25.60
68719;DHT22;55696;52.138;5.444;2022-09-03T13:15:22;33.20;25.20
68719;DHT22;55696;52.138;5.444;2022-09-03T13:23:24;33.50;25.10
68719;DHT22;55696;52.138;5.444;2022-09-03T13:26:11;33.50;24.90
68719;DHT22;55696;52.138;5.444;2022-09-03T13:31:37;33.70;24.80
68719;DHT22;55696;52.138;5.444;2022-09-03T13:34:12;33.70;24.50
68719;DHT22;55696;52.138;5.444;2022-09-03T13:36:48;33.50;24.20
68719;DHT22;55696;52.138;5.444;2022-09-03T13:39:31;33.70;24.60
68719;DHT22;55696;52.138;5.444;2022-09-03T13:42:06;33.90;24.80
68719;DHT22;55696;52.138;5.444;2022-09-03T13:44:51;34.10;24.50
68719;DHT22;55696;52.138;5.444;2022-09-03T13:47:30;34.20;24.50
68719;DHT22;55696;52.138;5.444;2022-09-03T13:50:07;34.40;24.40
68719;DHT22;55696;52.138;5.444;2022-09-03T13:52:58;34.50;24.30
68719;DHT22;55696;52.138;5.444;2022-09-03T13:58:05;34.70;24.20
68719;DHT22;55696;52.138;5.444;2022-09-03T14:03:56;34.70;24.20
68719;DHT22;55696;52.138;5.444;2022-09-03T14:06:43;34.70;24.20
68719;DHT22;55696;52.138;5.444;2022-09-03T14:12:36;35.00;24.50
68719;DHT22;55696;52.138;5.444;2022-09-03T14:20:53;35.20;24.10
68719;DHT22;55696;52.138;5.444;2022-09-03T14:26:53;35.60;23.60
68719;DHT22;55696;52.138;5.444;2022-09-03T14:29:25;35.60;23.60
68719;DHT22;55696;52.138;5.444;2022-09-03T14:37:46;35.80;23.60
68719;DHT22;55696;52.138;5.444;2022-09-03T14:40:41;35.60;23.40
68719;DHT22;55696;52.138;5.444;2022-09-03T14:43:51;35.40;23.40
68719;DHT22;55696;52.138;5.444;2022-09-03T14:52:20;35.40;23.80
68719;DHT22;55696;52.138;5.444;2022-09-03T15:01:10;35.40;23.70
68719;DHT22;55696;52.138;5.444;2022-09-03T15:09:30;35.70;23.60
68719;DHT22;55696;52.138;5.444;2022-09-03T15:12:05;35.60;23.50
68719;DHT22;55696;52.138;5.444;2022-09-03T15:14:54;35.60;23.50
68719;DHT22;55696;52.138;5.444;2022-09-03T15:20:20;35.70;23.70
68719;DHT22;55696;52.138;5.444;2022-09-03T15:36:53;35.50;23.70
68719;DHT22;55696;52.138;5.444;2022-09-03T15:39:31;35.50;23.50
68719;DHT22;55696;52.138;5.444;2022-09-03T15:44:38;35.50;23.50
68719;DHT22;55696;52.138;5.444;2022-09-03T15:47:11;35.70;23.90
68719;DHT22;55696;52.138;5.444;2022-09-03T15:49:53;35.70;23.70
68719;DHT22;55696;52.138;5.444;2022-09-03T15:55:38;35.70;23.70
68719;DHT22;55696;52.138;5.444;2022-09-03T16:01:25;35.50;24.20
68719;DHT22;55696;52.138;5.444;2022-09-03T16:03:55;35.40;23.40
68719;DHT22;55696;52.138;5.444;2022-09-03T16:06:35;35.40;23.70
68719;DHT22;55696;52.138;5.444;2022-09-03T16:15:19;35.40;24.00
68719;DHT22;55696;52.138;5.444;2022-09-03T16:18:03;35.30;23.90
68719;DHT22;55696;52.138;5.444;2022-09-03T16:20:47;35.20;24.30
68719;DHT22;55696;52.138;5.444;2022-09-03T16:23:49;35.50;24.40
68719;DHT22;55696;52.138;5.444;2022-09-03T16:26:36;35.10;24.00
68719;DHT22;55696;52.138;5.444;2022-09-03T16:29:14;35.00;23.50
68719;DHT22;55696;52.138;5.444;2022-09-03T16:37:33;34.80;24.00
68719;DHT22;55696;52.138;5.444;2022-09-03T16:40:21;34.70;24.10
68719;DHT22;55696;52.138;5.444;2022-09-03T16:45:30;34.30;24.50
68719;DHT22;55696;52.138;5.444;2022-09-03T16:51:16;33.80;24.80
68719;DHT22;55696;52.138;5.444;2022-09-03T16:57:01;33.70;25.20
68719;DHT22;55696;52.138;5.444;2022-09-03T17:10:48;32.70;26.20
68719;DHT22;55696;52.138;5.444;2022-09-03T17:13:53;32.40;26.60
68719;DHT22;55696;52.138;5.444;2022-09-03T17:19:41;32.10;27.10
68719;DHT22;55696;52.138;5.444;2022-09-03T17:22:29;31.90;27.20
68719;DHT22;55696;52.138;5.444;2022-09-03T17:25:01;31.70;28.20
68719;DHT22;55696;52.138;5.444;2022-09-03T17:27:51;31.50;27.60
68719;DHT22;55696;52.138;5.444;2022-09-03T17:30:41;31.30;28.00
68719;DHT22;55696;52.138;5.444;2022-09-03T17:41:49;30.20;29.30
68719;DHT22;55696;52.138;5.444;2022-09-03T17:44:37;30.60;30.00
68719;DHT22;55696;52.138;5.444;2022-09-03T17:47:31;29.90;30.00
68719;DHT22;55696;52.138;5.444;2022-09-03T17:50:17;29.70;30.10
68719;DHT22;55696;52.138;5.444;2022-09-03T17:53:08;29.60;30.60
68719;DHT22;55696;52.138;5.444;2022-09-03T17:55:43;29.50;30.90
68719;DHT22;55696;52.138;5.444;2022-09-03T17:58:18;29.30;32.30
68719;DHT22;55696;52.138;5.444;2022-09-03T18:03:27;29.30;31.80
68719;DHT22;55696;52.138;5.444;2022-09-03T18:06:24;28.80;31.70
68719;DHT22;55696;52.138;5.444;2022-09-03T18:09:04;28.60;32.20
68719;DHT22;55696;52.138;5.444;2022-09-03T18:11:40;28.50;32.60
68719;DHT22;55696;52.138;5.444;2022-09-03T18:14:14;28.40;32.80
68719;DHT22;55696;52.138;5.444;2022-09-03T18:19:45;28.00;32.90
68719;DHT22;55696;52.138;5.444;2022-09-03T18:25:37;27.90;33.70
68719;DHT22;55696;52.138;5.444;2022-09-03T18:28:34;27.80;33.90
68719;DHT22;55696;52.138;5.444;2022-09-03T18:31:21;27.40;33.90
68719;DHT22;55696;52.138;5.444;2022-09-03T18:34:07;27.40;34.00
68719;DHT22;55696;52.138;5.444;2022-09-03T18:36:56;27.30;34.30
68719;DHT22;55696;52.138;5.444;2022-09-03T18:39:44;27.10;34.50
68719;DHT22;55696;52.138;5.444;2022-09-03T18:42:48;27.00;35.00
68719;DHT22;55696;52.138;5.444;2022-09-03T18:45:45;27.00;35.20
68719;DHT22;55696;52.138;5.444;2022-09-03T18:49:04;26.90;35.50
68719;DHT22;55696;52.138;5.444;2022-09-03T18:52:01;26.80;35.90
68719;DHT22;55696;52.138;5.444;2022-09-03T19:01:03;26.40;37.30
68719;DHT22;55696;52.138;5.444;2022-09-03T19:07:13;26.20;37.50
68719;DHT22;55696;52.138;5.444;2022-09-03T19:10:13;26.10;37.70
68719;DHT22;55696;52.138;5.444;2022-09-03T19:13:17;26.00;38.10
68719;DHT22;55696;52.138;5.444;2022-09-03T19:16:15;25.80;38.60
68719;DHT22;55696;52.138;5.444;2022-09-03T19:19:28;25.80;38.70
68719;DHT22;55696;52.138;5.444;2022-09-03T19:22:37;25.70;39.10
68719;DHT22;55696;52.138;5.444;2022-09-03T19:25:24;25.50;39.20
68719;DHT22;55696;52.138;5.444;2022-09-03T19:28:25;25.40;39.30
68719;DHT22;55696;52.138;5.444;2022-09-03T19:31:18;25.40;39.70
68719;DHT22;55696;52.138;5.444;2022-09-03T19:34:35;25.40;39.90
68719;DHT22;55696;52.138;5.444;2022-09-03T19:40:44;25.10;40.20
68719;DHT22;55696;52.138;5.444;2022-09-03T19:44:31;25.10;40.50
68719;DHT22;55696;52.138;5.444;2022-09-03T19:47:55;25.10;40.70
68719;DHT22;55696;52.138;5.444;2022-09-03T19:50:59;24.90;40.30
68719;DHT22;55696;52.138;5.444;2022-09-03T19:53:47;24.80;40.60
68719;DHT22;55696;52.138;5.444;2022-09-03T19:56:35;24.70;40.70
68719;DHT22;55696;52.138;5.444;2022-09-03T19:59:24;24.70;40.90
68719;DHT22;55696;52.138;5.444;2022-09-03T20:02:12;24.60;40.80
68719;DHT22;55696;52.138;5.444;2022-09-03T20:04:59;24.60;40.80
68719;DHT22;55696;52.138;5.444;2022-09-03T20:07:47;24.60;41.00
68719;DHT22;55696;52.138;5.444;2022-09-03T20:10:34;24.60;41.00
68719;DHT22;55696;52.138;5.444;2022-09-03T20:13:12;24.40;41.00
68719;DHT22;55696;52.138;5.444;2022-09-03T20:16:06;24.40;41.30
68719;DHT22;55696;52.138;5.444;2022-09-03T20:21:41;24.30;41.60
68719;DHT22;55696;52.138;5.444;2022-09-03T20:24:18;24.30;41.70
68719;DHT22;55696;52.138;5.444;2022-09-03T20:35:05;23.80;42.80